sensor_id;sensor_type;location;lat;lon;timestamp;P1;durP1;ratioP1;P2;durP2;ratioP2
30707;SDS011;17458;48.958;8.284;2022-12-07T00:00:16;13.20;;;9.52;;
30707;SDS011;17458;48.958;8.284;2022-12-07T00:03:00;16.10;;;9.88;;
30707;SDS011;17458;48.958;8.284;2022-12-07T00:05:44;13.18;;;10.23;;
30707;SDS011;17458;48.958;8.284;2022-12-07T00:08:28;15.00;;;9.95;;
30707;SDS011;17458;48.958;8.284;2022-12-07T00:11:14;19.55;;;10.95;;
30707;SDS011;17458;48.958;8.284;2022-12-07T00:14:01;13.60;;;10.68;;
30707;SDS011;17458;48.958;8.284;2022-12-07T00:16:50;17.55;;;10.23;;
30707;SDS011;17458;48.958;8.284;2022-12-07T00:19:34;18.50;;;10.57;;
30707;SDS011;17458;48.958;8.284;2022-12-07T00:22:18;14.90;;;10.60;;
30707;SDS011;17458;48.958;8.284;2022-12-07T00:25:02;17.92;;;10.90;;
30707;SDS011;17458;48.958;8.284;2022-12-07T00:27:46;14.52;;;10.65;;
30707;SDS011;17458;48.958;8.284;2022-12-07T00:30:30;19.65;;;12.27;;
30707;SDS011;17458;48.958;8.284;2022-12-07T00:33:14;17.35;;;10.43;;
30707;SDS011;17458;48.958;8.284;2022-12-07T00:35:59;17.73;;;11.88;;
30707;SDS011;17458;48.958;8.284;2022-12-07T00:38:43;17.85;;;11.80;;
30707;SDS011;17458;48.958;8.284;2022-12-07T00:41:27;15.82;;;11.02;;
30707;SDS011;17458;48.958;8.284;2022-12-07T00:44:13;16.67;;;10.90;;
30707;SDS011;17458;48.958;8.284;2022-12-07T00:46:57;20.05;;;11.70;;
30707;SDS011;17458;48.958;8.284;2022-12-07T00:49:40;25.75;;;12.27;;
30707;SDS011;17458;48.958;8.284;2022-12-07T00:52:24;21.30;;;12.45;;
30707;SDS011;17458;48.958;8.284;2022-12-07T00:55:08;17.20;;;11.18;;
30707;SDS011;17458;48.958;8.284;2022-12-07T00:57:52;17.75;;;11.23;;
30707;SDS011;17458;48.958;8.284;2022-12-07T01:00:36;15.90;;;10.35;;
30707;SDS011;17458;48.958;8.284;2022-12-07T01:03:21;17.60;;;11.35;;
30707;SDS011;17458;48.958;8.284;2022-12-07T01:06:06;19.63;;;11.20;;
30707;SDS011;17458;48.958;8.284;2022-12-07T01:08:50;16.83;;;12.13;;
30707;SDS011;17458;48.958;8.284;2022-12-07T01:11:34;18.10;;;11.77;;
30707;SDS011;17458;48.958;8.284;2022-12-07T01:14:18;20.40;;;11.88;;
30707;SDS011;17458;48.958;8.284;2022-12-07T01:17:02;16.67;;;11.15;;
30707;SDS011;17458;48.958;8.284;2022-12-07T01:19:46;15.40;;;9.95;;
30707;SDS011;17458;48.958;8.284;2022-12-07T01:22:30;18.27;;;11.43;;
30707;SDS011;17458;48.958;8.284;2022-12-07T01:25:13;16.73;;;11.85;;
30707;SDS011;17458;48.958;8.284;2022-12-07T01:27:58;20.73;;;12.77;;
30707;SDS011;17458;48.958;8.284;2022-12-07T01:30:42;19.77;;;12.13;;
30707;SDS011;17458;48.958;8.284;2022-12-07T01:33:26;14.40;;;11.07;;
30707;SDS011;17458;48.958;8.284;2022-12-07T01:36:14;16.15;;;12.13;;
30707;SDS011;17458;48.958;8.284;2022-12-07T01:39:02;14.77;;;12.30;;
30707;SDS011;17458;48.958;8.284;2022-12-07T01:41:48;16.63;;;11.93;;
30707;SDS011;17458;48.958;8.284;2022-12-07T01:44:32;17.67;;;11.93;;
30707;SDS011;17458;48.958;8.284;2022-12-07T01:47:16;16.08;;;11.52;;
30707;SDS011;17458;48.958;8.284;2022-12-07T01:50:00;17.27;;;10.73;;
30707;SDS011;17458;48.958;8.284;2022-12-07T01:52:44;22.17;;;13.48;;
30707;SDS011;17458;48.958;8.284;2022-12-07T01:55:33;21.05;;;11.57;;
30707;SDS011;17458;48.958;8.284;2022-12-07T01:58:19;18.10;;;11.65;;
30707;SDS011;17458;48.958;8.284;2022-12-07T02:01:04;19.92;;;12.68;;
30707;SDS011;17458;48.958;8.284;2022-12-07T02:03:48;18.30;;;12.35;;
30707;SDS011;17458;48.958;8.284;2022-12-07T02:06:33;19.70;;;12.57;;
30707;SDS011;17458;48.958;8.284;2022-12-07T02:09:19;22.85;;;13.70;;
30707;SDS011;17458;48.958;8.284;2022-12-07T02:12:03;18.70;;;12.32;;
30707;SDS011;17458;48.958;8.284;2022-12-07T02:14:48;27.05;;;12.88;;
30707;SDS011;17458;48.958;8.284;2022-12-07T02:17:37;18.63;;;12.52;;
30707;SDS011;17458;48.958;8.284;2022-12-07T02:20:43;18.52;;;12.27;;
30707;SDS011;17458;48.958;8.284;2022-12-07T02:30:08;18.05;;;12.30;;
30707;SDS011;17458;48.958;8.284;2022-12-07T02:32:58;21.55;;;12.90;;
30707;SDS011;17458;48.958;8.284;2022-12-07T02:35:51;20.38;;;12.82;;
30707;SDS011;17458;48.958;8.284;2022-12-07T02:39:44;21.48;;;13.40;;
30707;SDS011;17458;48.958;8.284;2022-12-07T02:42:07;19.17;;;12.40;;
30707;SDS011;17458;48.958;8.284;2022-12-07T02:44:58;20.52;;;12.48;;
30707;SDS011;17458;48.958;8.284;2022-12-07T02:47:44;19.52;;;12.38;;
30707;SDS011;17458;48.958;8.284;2022-12-07T02:50:32;24.23;;;12.48;;
30707;SDS011;17458;48.958;8.284;2022-12-07T02:59:30;19.70;;;12.13;;
30707;SDS011;17458;48.958;8.284;2022-12-07T03:08:11;22.60;;;12.70;;
30707;SDS011;17458;48.958;8.284;2022-12-07T03:11:03;16.20;;;11.38;;
30707;SDS011;17458;48.958;8.284;2022-12-07T03:13:59;20.95;;;12.50;;
30707;SDS011;17458;48.958;8.284;2022-12-07T03:17:03;18.13;;;11.25;;
30707;SDS011;17458;48.958;8.284;2022-12-07T03:19:57;16.90;;;12.23;;
30707;SDS011;17458;48.958;8.284;2022-12-07T03:22:43;16.15;;;11.45;;
30707;SDS011;17458;48.958;8.284;2022-12-07T03:25:30;15.80;;;11.45;;
30707;SDS011;17458;48.958;8.284;2022-12-07T03:28:17;23.60;;;12.43;;
30707;SDS011;17458;48.958;8.284;2022-12-07T03:31:12;18.95;;;12.50;;
30707;SDS011;17458;48.958;8.284;2022-12-07T03:34:11;21.73;;;12.25;;
30707;SDS011;17458;48.958;8.284;2022-12-07T03:37:03;16.52;;;11.70;;
30707;SDS011;17458;48.958;8.284;2022-12-07T03:42:54;29.33;;;13.77;;
30707;SDS011;17458;48.958;8.284;2022-12-07T03:45:44;18.02;;;12.93;;
30707;SDS011;17458;48.958;8.284;2022-12-07T03:48:41;19.52;;;13.18;;
30707;SDS011;17458;48.958;8.284;2022-12-07T03:54:52;21.77;;;13.05;;
30707;SDS011;17458;48.958;8.284;2022-12-07T03:57:59;19.15;;;12.02;;
30707;SDS011;17458;48.958;8.284;2022-12-07T04:00:48;18.45;;;12.65;;
30707;SDS011;17458;48.958;8.284;2022-12-07T04:03:33;16.05;;;12.45;;
30707;SDS011;17458;48.958;8.284;2022-12-07T04:06:17;18.25;;;13.02;;
30707;SDS011;17458;48.958;8.284;2022-12-07T04:09:01;17.88;;;12.10;;
30707;SDS011;17458;48.958;8.284;2022-12-07T04:11:46;19.67;;;13.77;;
30707;SDS011;17458;48.958;8.284;2022-12-07T04:14:30;28.83;;;15.55;;
30707;SDS011;17458;48.958;8.284;2022-12-07T04:17:13;21.67;;;13.38;;
30707;SDS011;17458;48.958;8.284;2022-12-07T04:19:57;21.55;;;14.75;;
30707;SDS011;17458;48.958;8.284;2022-12-07T04:22:41;17.67;;;12.52;;
30707;SDS011;17458;48.958;8.284;2022-12-07T04:25:25;22.77;;;14.15;;
30707;SDS011;17458;48.958;8.284;2022-12-07T04:28:09;19.80;;;13.13;;
30707;SDS011;17458;48.958;8.284;2022-12-07T04:30:53;23.85;;;13.82;;
30707;SDS011;17458;48.958;8.284;2022-12-07T04:33:37;20.67;;;13.30;;
30707;SDS011;17458;48.958;8.284;2022-12-07T04:36:21;19.77;;;13.00;;
30707;SDS011;17458;48.958;8.284;2022-12-07T04:39:06;17.83;;;12.57;;
30707;SDS011;17458;48.958;8.284;2022-12-07T04:41:51;19.70;;;13.50;;
30707;SDS011;17458;48.958;8.284;2022-12-07T04:44:36;18.60;;;12.23;;
30707;SDS011;17458;48.958;8.284;2022-12-07T04:47:20;17.23;;;12.70;;
30707;SDS011;17458;48.958;8.284;2022-12-07T04:50:04;17.42;;;13.35;;
30707;SDS011;17458;48.958;8.284;2022-12-07T04:52:49;27.25;;;13.68;;
30707;SDS011;17458;48.958;8.284;2022-12-07T04:55:33;19.67;;;13.32;;
30707;SDS011;17458;48.958;8.284;2022-12-07T04:58:16;20.92;;;13.45;;
30707;SDS011;17458;48.958;8.284;2022-12-07T05:01:00;20.10;;;14.25;;
30707;SDS011;17458;48.958;8.284;2022-12-07T05:03:44;25.42;;;13.20;;
30707;SDS011;17458;48.958;8.284;2022-12-07T05:06:29;20.20;;;13.52;;
30707;SDS011;17458;48.958;8.284;2022-12-07T05:09:13;21.35;;;13.35;;
30707;SDS011;17458;48.958;8.284;2022-12-07T05:11:56;17.70;;;12.48;;
30707;SDS011;17458;48.958;8.284;2022-12-07T05:14:40;20.25;;;13.48;;
30707;SDS011;17458;48.958;8.284;2022-12-07T05:17:24;20.88;;;13.13;;
30707;SDS011;17458;48.958;8.284;2022-12-07T05:20:09;22.83;;;12.73;;
30707;SDS011;17458;48.958;8.284;2022-12-07T05:22:53;20.73;;;13.85;;
30707;SDS011;17458;48.958;8.284;2022-12-07T05:25:37;21.95;;;13.85;;
30707;SDS011;17458;48.958;8.284;2022-12-07T05:28:22;21.92;;;13.25;;
30707;SDS011;17458;48.958;8.284;2022-12-07T05:31:06;23.58;;;14.75;;
30707;SDS011;17458;48.958;8.284;2022-12-07T05:33:50;19.13;;;12.95;;
30707;SDS011;17458;48.958;8.284;2022-12-07T05:36:34;23.50;;;13.02;;
30707;SDS011;17458;48.958;8.284;2022-12-07T05:39:18;19.90;;;13.57;;
30707;SDS011;17458;48.958;8.284;2022-12-07T05:42:03;18.67;;;12.77;;
30707;SDS011;17458;48.958;8.284;2022-12-07T05:44:56;18.42;;;12.52;;
30707;SDS011;17458;48.958;8.284;2022-12-07T05:47:40;16.30;;;11.95;;
30707;SDS011;17458;48.958;8.284;2022-12-07T05:50:24;21.83;;;12.18;;
30707;SDS011;17458;48.958;8.284;2022-12-07T05:53:17;19.50;;;13.18;;
30707;SDS011;17458;48.958;8.284;2022-12-07T05:56:02;20.15;;;13.02;;
30707;SDS011;17458;48.958;8.284;2022-12-07T05:58:46;19.88;;;13.88;;
30707;SDS011;17458;48.958;8.284;2022-12-07T06:01:58;17.85;;;12.55;;
30707;SDS011;17458;48.958;8.284;2022-12-07T06:04:44;22.48;;;13.73;;
30707;SDS011;17458;48.958;8.284;2022-12-07T06:07:29;21.02;;;13.48;;
30707;SDS011;17458;48.958;8.284;2022-12-07T06:10:13;18.55;;;13.07;;
30707;SDS011;17458;48.958;8.284;2022-12-07T06:12:57;21.90;;;13.30;;
30707;SDS011;17458;48.958;8.284;2022-12-07T06:15:41;22.27;;;13.35;;
30707;SDS011;17458;48.958;8.284;2022-12-07T06:18:25;22.10;;;14.85;;
30707;SDS011;17458;48.958;8.284;2022-12-07T06:21:09;22.48;;;12.93;;
30707;SDS011;17458;48.958;8.284;2022-12-07T06:23:53;20.38;;;13.23;;
30707;SDS011;17458;48.958;8.284;2022-12-07T06:26:38;20.10;;;12.50;;
30707;SDS011;17458;48.958;8.284;2022-12-07T06:29:22;21.92;;;14.27;;
30707;SDS011;17458;48.958;8.284;2022-12-07T06:32:06;25.10;;;14.45;;
30707;SDS011;17458;48.958;8.284;2022-12-07T06:34:50;24.17;;;15.43;;
30707;SDS011;17458;48.958;8.284;2022-12-07T06:37:34;20.52;;;12.70;;
30707;SDS011;17458;48.958;8.284;2022-12-07T06:40:17;19.50;;;13.10;;
30707;SDS011;17458;48.958;8.284;2022-12-07T06:43:01;19.83;;;13.13;;
30707;SDS011;17458;48.958;8.284;2022-12-07T06:45:45;21.15;;;12.23;;
30707;SDS011;17458;48.958;8.284;2022-12-07T06:48:29;18.13;;;12.93;;
30707;SDS011;17458;48.958;8.284;2022-12-07T06:51:13;16.80;;;12.48;;
30707;SDS011;17458;48.958;8.284;2022-12-07T06:53:57;17.50;;;12.10;;
30707;SDS011;17458;48.958;8.284;2022-12-07T06:56:41;21.80;;;13.70;;
30707;SDS011;17458;48.958;8.284;2022-12-07T06:59:25;16.50;;;11.73;;
30707;SDS011;17458;48.958;8.284;2022-12-07T07:02:09;20.73;;;12.63;;
30707;SDS011;17458;48.958;8.284;2022-12-07T07:04:53;16.30;;;12.00;;
30707;SDS011;17458;48.958;8.284;2022-12-07T07:07:37;20.38;;;13.07;;
30707;SDS011;17458;48.958;8.284;2022-12-07T07:10:21;19.60;;;12.00;;
30707;SDS011;17458;48.958;8.284;2022-12-07T07:13:05;20.13;;;11.95;;
30707;SDS011;17458;48.958;8.284;2022-12-07T07:15:50;16.85;;;11.18;;
30707;SDS011;17458;48.958;8.284;2022-12-07T07:18:34;20.73;;;12.13;;
30707;SDS011;17458;48.958;8.284;2022-12-07T07:21:18;17.52;;;12.00;;
30707;SDS011;17458;48.958;8.284;2022-12-07T07:24:02;20.33;;;11.77;;
30707;SDS011;17458;48.958;8.284;2022-12-07T07:26:46;21.77;;;11.90;;
30707;SDS011;17458;48.958;8.284;2022-12-07T07:29:30;16.95;;;11.07;;
30707;SDS011;17458;48.958;8.284;2022-12-07T07:32:14;20.52;;;12.80;;
30707;SDS011;17458;48.958;8.284;2022-12-07T07:34:58;18.77;;;12.25;;
30707;SDS011;17458;48.958;8.284;2022-12-07T07:37:42;24.02;;;11.73;;
30707;SDS011;17458;48.958;8.284;2022-12-07T07:40:27;18.98;;;11.93;;
30707;SDS011;17458;48.958;8.284;2022-12-07T07:43:13;16.48;;;10.27;;
30707;SDS011;17458;48.958;8.284;2022-12-07T07:45:57;17.02;;;11.32;;
30707;SDS011;17458;48.958;8.284;2022-12-07T07:48:40;17.25;;;12.77;;
30707;SDS011;17458;48.958;8.284;2022-12-07T07:51:24;17.20;;;11.90;;
30707;SDS011;17458;48.958;8.284;2022-12-07T07:54:08;19.65;;;12.75;;
30707;SDS011;17458;48.958;8.284;2022-12-07T07:56:52;21.42;;;12.48;;
30707;SDS011;17458;48.958;8.284;2022-12-07T07:59:36;19.10;;;12.30;;
30707;SDS011;17458;48.958;8.284;2022-12-07T08:02:20;18.17;;;12.18;;
30707;SDS011;17458;48.958;8.284;2022-12-07T08:05:05;19.55;;;13.25;;
30707;SDS011;17458;48.958;8.284;2022-12-07T08:07:50;20.30;;;12.80;;
30707;SDS011;17458;48.958;8.284;2022-12-07T08:10:34;21.98;;;12.43;;
30707;SDS011;17458;48.958;8.284;2022-12-07T08:13:19;21.55;;;12.10;;
30707;SDS011;17458;48.958;8.284;2022-12-07T08:16:04;16.25;;;11.18;;
30707;SDS011;17458;48.958;8.284;2022-12-07T08:18:50;15.45;;;11.45;;
30707;SDS011;17458;48.958;8.284;2022-12-07T08:21:34;17.00;;;12.20;;
30707;SDS011;17458;48.958;8.284;2022-12-07T08:24:18;22.73;;;11.13;;
30707;SDS011;17458;48.958;8.284;2022-12-07T08:27:02;16.27;;;11.48;;
30707;SDS011;17458;48.958;8.284;2022-12-07T08:29:46;17.60;;;10.45;;
30707;SDS011;17458;48.958;8.284;2022-12-07T08:32:30;17.80;;;11.40;;
30707;SDS011;17458;48.958;8.284;2022-12-07T08:35:14;13.73;;;10.50;;
30707;SDS011;17458;48.958;8.284;2022-12-07T08:37:59;15.65;;;11.25;;
30707;SDS011;17458;48.958;8.284;2022-12-07T08:40:42;21.25;;;11.15;;
30707;SDS011;17458;48.958;8.284;2022-12-07T08:43:26;15.63;;;10.65;;
30707;SDS011;17458;48.958;8.284;2022-12-07T08:49:14;14.73;;;9.77;;
30707;SDS011;17458;48.958;8.284;2022-12-07T08:52:02;14.70;;;10.35;;
30707;SDS011;17458;48.958;8.284;2022-12-07T08:54:48;21.75;;;10.32;;
30707;SDS011;17458;48.958;8.284;2022-12-07T08:57:33;17.17;;;10.27;;
30707;SDS011;17458;48.958;8.284;2022-12-07T09:00:18;17.38;;;10.48;;
30707;SDS011;17458;48.958;8.284;2022-12-07T09:03:03;14.82;;;10.70;;
30707;SDS011;17458;48.958;8.284;2022-12-07T09:05:47;15.75;;;10.38;;
30707;SDS011;17458;48.958;8.284;2022-12-07T09:08:33;15.45;;;9.43;;
30707;SDS011;17458;48.958;8.284;2022-12-07T09:11:22;16.80;;;11.15;;
30707;SDS011;17458;48.958;8.284;2022-12-07T09:14:06;18.65;;;11.52;;
30707;SDS011;17458;48.958;8.284;2022-12-07T09:16:50;15.00;;;10.68;;
30707;SDS011;17458;48.958;8.284;2022-12-07T09:19:34;14.15;;;9.85;;
30707;SDS011;17458;48.958;8.284;2022-12-07T09:22:17;18.60;;;9.70;;
30707;SDS011;17458;48.958;8.284;2022-12-07T09:25:02;19.13;;;10.60;;
30707;SDS011;17458;48.958;8.284;2022-12-07T09:27:47;18.02;;;10.27;;
30707;SDS011;17458;48.958;8.284;2022-12-07T09:30:31;16.65;;;10.27;;
30707;SDS011;17458;48.958;8.284;2022-12-07T09:33:16;19.95;;;9.77;;
30707;SDS011;17458;48.958;8.284;2022-12-07T09:36:00;16.65;;;10.48;;
30707;SDS011;17458;48.958;8.284;2022-12-07T09:38:44;16.83;;;10.77;;
30707;SDS011;17458;48.958;8.284;2022-12-07T09:41:29;21.83;;;13.70;;
30707;SDS011;17458;48.958;8.284;2022-12-07T09:44:20;14.63;;;10.50;;
30707;SDS011;17458;48.958;8.284;2022-12-07T09:47:07;15.48;;;10.48;;
30707;SDS011;17458;48.958;8.284;2022-12-07T09:49:54;14.25;;;10.15;;
30707;SDS011;17458;48.958;8.284;2022-12-07T09:52:44;15.57;;;10.32;;
30707;SDS011;17458;48.958;8.284;2022-12-07T09:55:29;15.50;;;10.18;;
30707;SDS011;17458;48.958;8.284;2022-12-07T09:58:19;15.95;;;9.63;;
30707;SDS011;17458;48.958;8.284;2022-12-07T10:01:14;15.07;;;9.98;;
30707;SDS011;17458;48.958;8.284;2022-12-07T10:04:14;15.07;;;10.13;;
30707;SDS011;17458;48.958;8.284;2022-12-07T10:07:04;13.45;;;9.77;;
30707;SDS011;17458;48.958;8.284;2022-12-07T10:09:48;14.30;;;10.75;;
30707;SDS011;17458;48.958;8.284;2022-12-07T10:12:44;14.10;;;9.95;;
30707;SDS011;17458;48.958;8.284;2022-12-07T10:15:54;17.30;;;10.00;;
30707;SDS011;17458;48.958;8.284;2022-12-07T10:18:40;17.48;;;10.20;;
30707;SDS011;17458;48.958;8.284;2022-12-07T10:21:25;17.00;;;9.35;;
30707;SDS011;17458;48.958;8.284;2022-12-07T10:26:54;16.65;;;10.57;;
30707;SDS011;17458;48.958;8.284;2022-12-07T10:29:38;20.35;;;12.27;;
30707;SDS011;17458;48.958;8.284;2022-12-07T10:32:32;14.57;;;10.43;;
30707;SDS011;17458;48.958;8.284;2022-12-07T10:35:20;14.77;;;9.02;;
30707;SDS011;17458;48.958;8.284;2022-12-07T10:38:07;18.02;;;10.20;;
30707;SDS011;17458;48.958;8.284;2022-12-07T10:41:04;19.98;;;11.25;;
30707;SDS011;17458;48.958;8.284;2022-12-07T10:43:54;19.15;;;11.00;;
30707;SDS011;17458;48.958;8.284;2022-12-07T10:46:45;16.10;;;11.02;;
30707;SDS011;17458;48.958;8.284;2022-12-07T10:59:02;18.08;;;10.98;;
30707;SDS011;17458;48.958;8.284;2022-12-07T11:05:19;14.82;;;10.15;;
30707;SDS011;17458;48.958;8.284;2022-12-07T11:10:58;15.57;;;10.43;;
30707;SDS011;17458;48.958;8.284;2022-12-07T11:14:00;16.58;;;10.40;;
30707;SDS011;17458;48.958;8.284;2022-12-07T11:17:07;17.73;;;11.90;;
30707;SDS011;17458;48.958;8.284;2022-12-07T11:33:10;19.90;;;11.73;;
30707;SDS011;17458;48.958;8.284;2022-12-07T11:36:17;20.42;;;11.95;;
30707;SDS011;17458;48.958;8.284;2022-12-07T11:42:13;17.20;;;11.15;;
30707;SDS011;17458;48.958;8.284;2022-12-07T11:45:43;17.42;;;11.82;;
30707;SDS011;17458;48.958;8.284;2022-12-07T11:48:28;18.58;;;12.38;;
30707;SDS011;17458;48.958;8.284;2022-12-07T11:51:20;18.17;;;12.35;;
30707;SDS011;17458;48.958;8.284;2022-12-07T11:54:20;17.63;;;11.73;;
30707;SDS011;17458;48.958;8.284;2022-12-07T11:57:10;16.20;;;10.75;;
30707;SDS011;17458;48.958;8.284;2022-12-07T12:00:04;17.50;;;11.10;;
30707;SDS011;17458;48.958;8.284;2022-12-07T12:02:53;17.08;;;11.32;;
30707;SDS011;17458;48.958;8.284;2022-12-07T12:05:45;19.52;;;11.27;;
30707;SDS011;17458;48.958;8.284;2022-12-07T12:14:54;23.90;;;12.80;;
30707;SDS011;17458;48.958;8.284;2022-12-07T12:17:44;19.88;;;11.63;;
30707;SDS011;17458;48.958;8.284;2022-12-07T12:24:04;20.33;;;10.57;;
30707;SDS011;17458;48.958;8.284;2022-12-07T12:27:03;21.38;;;11.35;;
30707;SDS011;17458;48.958;8.284;2022-12-07T12:29:54;23.10;;;11.55;;
30707;SDS011;17458;48.958;8.284;2022-12-07T12:32:41;17.40;;;10.45;;
30707;SDS011;17458;48.958;8.284;2022-12-07T12:35:29;18.00;;;11.38;;
30707;SDS011;17458;48.958;8.284;2022-12-07T12:38:32;19.23;;;11.85;;
30707;SDS011;17458;48.958;8.284;2022-12-07T12:47:38;20.00;;;11.98;;
30707;SDS011;17458;48.958;8.284;2022-12-07T12:50:42;22.33;;;12.35;;
30707;SDS011;17458;48.958;8.284;2022-12-07T12:53:26;16.30;;;10.90;;
30707;SDS011;17458;48.958;8.284;2022-12-07T12:56:27;21.98;;;11.68;;
30707;SDS011;17458;48.958;8.284;2022-12-07T12:59:24;19.63;;;11.98;;
30707;SDS011;17458;48.958;8.284;2022-12-07T13:05:22;20.55;;;12.75;;
30707;SDS011;17458;48.958;8.284;2022-12-07T13:11:18;16.58;;;10.85;;
30707;SDS011;17458;48.958;8.284;2022-12-07T13:26:38;16.08;;;10.18;;
30707;SDS011;17458;48.958;8.284;2022-12-07T13:29:26;15.68;;;10.73;;
30707;SDS011;17458;48.958;8.284;2022-12-07T13:32:19;12.93;;;9.30;;
30707;SDS011;17458;48.958;8.284;2022-12-07T13:35:31;16.17;;;11.05;;
30707;SDS011;17458;48.958;8.284;2022-12-07T13:38:25;17.58;;;11.05;;
30707;SDS011;17458;48.958;8.284;2022-12-07T13:41:14;14.38;;;10.30;;
30707;SDS011;17458;48.958;8.284;2022-12-07T13:44:09;18.17;;;10.00;;
30707;SDS011;17458;48.958;8.284;2022-12-07T13:50:02;14.30;;;10.07;;
30707;SDS011;17458;48.958;8.284;2022-12-07T13:53:12;14.45;;;9.85;;
30707;SDS011;17458;48.958;8.284;2022-12-07T13:55:58;14.88;;;10.02;;
30707;SDS011;17458;48.958;8.284;2022-12-07T13:58:43;17.63;;;10.27;;
30707;SDS011;17458;48.958;8.284;2022-12-07T14:01:28;14.43;;;9.25;;
30707;SDS011;17458;48.958;8.284;2022-12-07T14:07:21;19.20;;;8.43;;
30707;SDS011;17458;48.958;8.284;2022-12-07T14:10:27;13.90;;;9.40;;
30707;SDS011;17458;48.958;8.284;2022-12-07T14:19:03;12.55;;;8.50;;
30707;SDS011;17458;48.958;8.284;2022-12-07T14:21:48;21.00;;;8.63;;
30707;SDS011;17458;48.958;8.284;2022-12-07T14:24:50;13.07;;;9.75;;
30707;SDS011;17458;48.958;8.284;2022-12-07T14:27:47;14.23;;;9.23;;
30707;SDS011;17458;48.958;8.284;2022-12-07T14:30:39;14.07;;;8.25;;
30707;SDS011;17458;48.958;8.284;2022-12-07T14:33:25;13.75;;;8.75;;
30707;SDS011;17458;48.958;8.284;2022-12-07T14:36:10;13.95;;;10.43;;
30707;SDS011;17458;48.958;8.284;2022-12-07T14:38:55;11.27;;;8.05;;
30707;SDS011;17458;48.958;8.284;2022-12-07T14:41:41;19.20;;;9.38;;
30707;SDS011;17458;48.958;8.284;2022-12-07T14:44:35;11.05;;;8.27;;
30707;SDS011;17458;48.958;8.284;2022-12-07T14:47:19;9.55;;;7.53;;
30707;SDS011;17458;48.958;8.284;2022-12-07T14:50:03;15.25;;;9.38;;
30707;SDS011;17458;48.958;8.284;2022-12-07T14:52:48;12.85;;;9.48;;
30707;SDS011;17458;48.958;8.284;2022-12-07T14:55:35;13.93;;;10.43;;
30707;SDS011;17458;48.958;8.284;2022-12-07T14:58:20;20.17;;;12.35;;
30707;SDS011;17458;48.958;8.284;2022-12-07T15:01:04;13.82;;;9.05;;
30707;SDS011;17458;48.958;8.284;2022-12-07T15:03:48;15.10;;;9.70;;
30707;SDS011;17458;48.958;8.284;2022-12-07T15:06:32;13.10;;;9.00;;
30707;SDS011;17458;48.958;8.284;2022-12-07T15:09:16;14.27;;;7.60;;
30707;SDS011;17458;48.958;8.284;2022-12-07T15:12:00;11.95;;;8.43;;
30707;SDS011;17458;48.958;8.284;2022-12-07T15:14:44;12.23;;;9.25;;
30707;SDS011;17458;48.958;8.284;2022-12-07T15:17:28;11.80;;;7.82;;
30707;SDS011;17458;48.958;8.284;2022-12-07T15:20:13;14.93;;;8.45;;
30707;SDS011;17458;48.958;8.284;2022-12-07T15:23:00;15.32;;;7.63;;
30707;SDS011;17458;48.958;8.284;2022-12-07T15:25:44;13.73;;;9.10;;
30707;SDS011;17458;48.958;8.284;2022-12-07T15:28:30;11.05;;;7.90;;
30707;SDS011;17458;48.958;8.284;2022-12-07T15:31:14;12.73;;;7.40;;
30707;SDS011;17458;48.958;8.284;2022-12-07T15:33:59;11.95;;;8.88;;
30707;SDS011;17458;48.958;8.284;2022-12-07T15:36:43;14.70;;;8.70;;
30707;SDS011;17458;48.958;8.284;2022-12-07T15:39:27;15.50;;;8.95;;
30707;SDS011;17458;48.958;8.284;2022-12-07T15:42:11;13.25;;;8.07;;
30707;SDS011;17458;48.958;8.284;2022-12-07T15:44:55;22.73;;;10.50;;
30707;SDS011;17458;48.958;8.284;2022-12-07T15:47:48;14.52;;;9.30;;
30707;SDS011;17458;48.958;8.284;2022-12-07T15:50:32;12.80;;;9.18;;
30707;SDS011;17458;48.958;8.284;2022-12-07T15:53:16;16.17;;;9.10;;
30707;SDS011;17458;48.958;8.284;2022-12-07T15:56:01;19.60;;;10.75;;
30707;SDS011;17458;48.958;8.284;2022-12-07T15:58:48;16.75;;;9.82;;
30707;SDS011;17458;48.958;8.284;2022-12-07T16:01:32;15.90;;;9.60;;
30707;SDS011;17458;48.958;8.284;2022-12-07T16:04:16;14.68;;;8.38;;
30707;SDS011;17458;48.958;8.284;2022-12-07T16:07:00;13.40;;;8.80;;
30707;SDS011;17458;48.958;8.284;2022-12-07T16:09:45;16.48;;;9.07;;
30707;SDS011;17458;48.958;8.284;2022-12-07T16:12:30;16.02;;;8.82;;
30707;SDS011;17458;48.958;8.284;2022-12-07T16:15:14;12.75;;;8.98;;
30707;SDS011;17458;48.958;8.284;2022-12-07T16:17:58;15.02;;;10.27;;
30707;SDS011;17458;48.958;8.284;2022-12-07T16:20:42;13.82;;;8.95;;
30707;SDS011;17458;48.958;8.284;2022-12-07T16:23:26;13.93;;;10.15;;
30707;SDS011;17458;48.958;8.284;2022-12-07T16:26:15;16.38;;;9.75;;
30707;SDS011;17458;48.958;8.284;2022-12-07T16:29:01;17.50;;;10.23;;
30707;SDS011;17458;48.958;8.284;2022-12-07T16:31:46;14.88;;;10.60;;
30707;SDS011;17458;48.958;8.284;2022-12-07T16:34:30;18.00;;;11.02;;
30707;SDS011;17458;48.958;8.284;2022-12-07T16:37:14;17.08;;;10.10;;
30707;SDS011;17458;48.958;8.284;2022-12-07T16:39:58;17.63;;;10.30;;
30707;SDS011;17458;48.958;8.284;2022-12-07T16:42:42;22.25;;;11.05;;
30707;SDS011;17458;48.958;8.284;2022-12-07T16:45:26;13.15;;;9.40;;
30707;SDS011;17458;48.958;8.284;2022-12-07T16:48:11;16.15;;;11.00;;
30707;SDS011;17458;48.958;8.284;2022-12-07T16:50:55;15.27;;;9.98;;
30707;SDS011;17458;48.958;8.284;2022-12-07T16:53:40;16.08;;;10.73;;
30707;SDS011;17458;48.958;8.284;2022-12-07T16:56:25;18.95;;;10.82;;
30707;SDS011;17458;48.958;8.284;2022-12-07T16:59:10;15.77;;;10.85;;
30707;SDS011;17458;48.958;8.284;2022-12-07T17:01:54;21.58;;;11.57;;
30707;SDS011;17458;48.958;8.284;2022-12-07T17:04:38;16.58;;;10.65;;
30707;SDS011;17458;48.958;8.284;2022-12-07T17:07:23;16.30;;;10.52;;
30707;SDS011;17458;48.958;8.284;2022-12-07T17:10:07;18.35;;;11.88;;
30707;SDS011;17458;48.958;8.284;2022-12-07T17:12:52;19.75;;;12.20;;
30707;SDS011;17458;48.958;8.284;2022-12-07T17:15:35;19.98;;;12.10;;
30707;SDS011;17458;48.958;8.284;2022-12-07T17:18:19;18.88;;;11.95;;
30707;SDS011;17458;48.958;8.284;2022-12-07T17:21:07;24.95;;;13.38;;
30707;SDS011;17458;48.958;8.284;2022-12-07T17:23:52;20.67;;;12.75;;
30707;SDS011;17458;48.958;8.284;2022-12-07T17:26:37;22.45;;;12.07;;
30707;SDS011;17458;48.958;8.284;2022-12-07T17:29:21;23.23;;;12.13;;
30707;SDS011;17458;48.958;8.284;2022-12-07T17:32:05;18.40;;;12.48;;
30707;SDS011;17458;48.958;8.284;2022-12-07T17:34:49;18.25;;;12.07;;
30707;SDS011;17458;48.958;8.284;2022-12-07T17:37:33;24.10;;;12.68;;
30707;SDS011;17458;48.958;8.284;2022-12-07T17:40:17;20.13;;;11.68;;
30707;SDS011;17458;48.958;8.284;2022-12-07T17:43:01;23.30;;;11.98;;
30707;SDS011;17458;48.958;8.284;2022-12-07T17:45:44;16.98;;;11.77;;
30707;SDS011;17458;48.958;8.284;2022-12-07T17:48:28;18.08;;;12.38;;
30707;SDS011;17458;48.958;8.284;2022-12-07T17:51:12;21.60;;;13.60;;
30707;SDS011;17458;48.958;8.284;2022-12-07T17:54:20;23.77;;;12.93;;
30707;SDS011;17458;48.958;8.284;2022-12-07T17:57:05;18.27;;;12.50;;
30707;SDS011;17458;48.958;8.284;2022-12-07T17:59:50;21.30;;;12.13;;
30707;SDS011;17458;48.958;8.284;2022-12-07T18:02:34;23.20;;;13.30;;
30707;SDS011;17458;48.958;8.284;2022-12-07T18:05:18;22.80;;;12.38;;
30707;SDS011;17458;48.958;8.284;2022-12-07T18:08:03;22.88;;;14.77;;